createdAt,value
2018-09-09T00:01:09.371Z,14.60
2018-09-09T00:03:37.922Z,14.60
2018-09-09T00:06:06.785Z,14.50
2018-09-09T00:08:35.096Z,14.50
2018-09-09T00:11:04.621Z,14.50
2018-09-09T00:13:34.441Z,14.50
2018-09-09T00:16:03.168Z,14.50
2018-09-09T00:18:32.193Z,14.50
2018-09-09T00:21:01.239Z,14.40
2018-09-09T00:23:29.537Z,14.40
2018-09-09T00:25:58.239Z,14.40
2018-09-09T00:28:27.160Z,14.40
2018-09-09T00:30:56.578Z,14.40
2018-09-09T00:33:25.292Z,14.40
2018-09-09T00:35:54.160Z,14.30
2018-09-09T00:38:22.568Z,14.30
2018-09-09T00:40:52.285Z,14.30
2018-09-09T00:43:21.628Z,14.30
2018-09-09T00:45:50.214Z,14.30
2018-09-09T00:48:18.680Z,14.20
2018-09-09T00:50:52.693Z,14.10
2018-09-09T00:53:26.778Z,14.10
2018-09-09T00:55:56.400Z,14.20
2018-09-09T00:58:24.944Z,14.10
2018-09-09T01:00:59.804Z,14.10
2018-09-09T01:03:28.762Z,14.00
2018-09-09T01:05:57.740Z,13.90
2018-09-09T01:08:26.770Z,13.90
2018-09-09T01:10:56.451Z,13.90
2018-09-09T01:13:25.068Z,13.80
2018-09-09T01:15:53.678Z,13.80
2018-09-09T01:18:21.974Z,13.80
2018-09-09T01:20:51.194Z,13.80
2018-09-09T01:23:19.584Z,13.70
2018-09-09T01:25:49.733Z,13.70
2018-09-09T01:28:19.384Z,13.80
2018-09-09T01:30:48.494Z,13.80
2018-09-09T01:33:16.990Z,12.00
2018-09-09T01:35:46.086Z,13.70
2018-09-09T01:38:16.005Z,13.70
2018-09-09T01:40:44.323Z,13.70
2018-09-09T01:43:12.642Z,13.60
2018-09-09T01:45:41.715Z,13.50
2018-09-09T01:48:10.031Z,13.60
2018-09-09T01:50:38.430Z,13.60
2018-09-09T01:53:06.968Z,13.60
2018-09-09T01:55:36.047Z,13.60
2018-09-09T01:58:05.338Z,13.50
2018-09-09T02:00:35.057Z,13.50
2018-09-09T02:03:05.934Z,13.50
2018-09-09T02:05:35.385Z,13.40
2018-09-09T02:08:03.812Z,13.40
2018-09-09T02:10:32.348Z,13.40
2018-09-09T02:13:01.652Z,13.30
2018-09-09T02:15:31.093Z,13.30
2018-09-09T02:17:59.999Z,13.30
2018-09-09T02:20:29.671Z,13.30
2018-09-09T02:23:00.889Z,13.30
2018-09-09T02:25:30.284Z,13.30
2018-09-09T02:28:00.246Z,13.30
2018-09-09T02:30:29.823Z,13.30
2018-09-09T02:32:58.190Z,13.30
2018-09-09T02:35:26.752Z,13.20
2018-09-09T02:37:56.073Z,13.20
2018-09-09T02:40:24.446Z,13.20
2018-09-09T02:42:54.403Z,13.20
2018-09-09T02:45:24.776Z,13.20
2018-09-09T02:47:53.559Z,13.10
2018-09-09T02:50:23.532Z,13.30
2018-09-09T02:52:51.875Z,13.10
2018-09-09T02:55:20.937Z,13.10
2018-09-09T02:57:49.238Z,13.10
2018-09-09T03:00:17.597Z,13.10
2018-09-09T03:02:47.306Z,13.10
2018-09-09T03:05:17.280Z,13.10
2018-09-09T03:07:46.448Z,13.00
2018-09-09T03:10:16.201Z,13.00
2018-09-09T03:12:45.576Z,13.00
2018-09-09T03:15:14.234Z,13.00
2018-09-09T03:17:42.540Z,13.00
2018-09-09T03:20:11.012Z,13.00
2018-09-09T03:22:39.304Z,12.90
2018-09-09T03:25:08.325Z,12.80
2018-09-09T03:27:37.497Z,12.80
2018-09-09T03:30:06.635Z,12.80
2018-09-09T03:32:34.907Z,12.70
2018-09-09T03:37:32.274Z,12.70
2018-09-09T03:40:01.824Z,12.60
2018-09-09T03:42:30.671Z,12.50
2018-09-09T03:44:59.016Z,12.50
2018-09-09T03:47:27.622Z,12.50
2018-09-09T03:49:56.676Z,12.60
2018-09-09T03:52:25.391Z,12.60
2018-09-09T03:54:54.147Z,12.50
2018-09-09T03:57:22.449Z,12.50
2018-09-09T03:59:50.953Z,12.50
2018-09-09T04:02:20.374Z,12.50
2018-09-09T04:04:48.752Z,12.60
2018-09-09T04:07:17.227Z,12.50
2018-09-09T04:09:46.491Z,12.40
2018-09-09T04:12:15.548Z,12.40
2018-09-09T04:14:45.542Z,12.40
2018-09-09T04:17:14.268Z,12.30
2018-09-09T04:19:43.263Z,12.40
2018-09-09T04:22:12.084Z,12.40
2018-09-09T04:24:41.166Z,12.40
2018-09-09T04:27:09.844Z,12.40
2018-09-09T04:29:38.612Z,12.30
2018-09-09T04:32:10.505Z,12.30
2018-09-09T04:34:38.839Z,12.30
2018-09-09T04:37:07.855Z,12.30
2018-09-09T04:39:36.127Z,12.20
2018-09-09T04:42:12.357Z,12.20
2018-09-09T04:44:40.881Z,12.20
2018-09-09T04:47:09.705Z,12.20
2018-09-09T04:49:38.335Z,12.10
2018-09-09T04:52:07.446Z,12.10
2018-09-09T04:54:35.675Z,12.10
2018-09-09T04:57:03.941Z,12.00
2018-09-09T04:59:32.630Z,12.00
2018-09-09T05:02:00.952Z,11.90
2018-09-09T05:04:29.826Z,12.00
2018-09-09T05:06:58.169Z,12.00
2018-09-09T05:09:28.403Z,12.00
2018-09-09T05:11:57.582Z,12.00
2018-09-09T05:14:27.296Z,12.00
2018-09-09T05:16:55.654Z,12.10
2018-09-09T05:19:25.457Z,12.10
2018-09-09T05:21:54.651Z,12.10
2018-09-09T05:24:23.256Z,12.10
2018-09-09T05:26:52.846Z,12.10
2018-09-09T05:29:22.822Z,12.10
2018-09-09T05:31:51.546Z,12.10
2018-09-09T05:34:20.880Z,12.10
2018-09-09T05:36:50.036Z,12.20
2018-09-09T05:39:19.164Z,12.20
2018-09-09T05:41:47.759Z,12.20
2018-09-09T05:44:16.646Z,12.20
2018-09-09T05:46:46.709Z,12.30
2018-09-09T05:49:16.415Z,12.40
2018-09-09T05:51:46.885Z,12.40
2018-09-09T05:54:16.393Z,12.50
2018-09-09T05:56:47.427Z,12.60
2018-09-09T05:59:16.464Z,12.70
2018-09-09T06:01:45.312Z,12.70
2018-09-09T06:04:13.691Z,12.90
2018-09-09T06:06:42.771Z,13.10
2018-09-09T06:09:12.026Z,13.30
2018-09-09T06:11:41.245Z,13.30
2018-09-09T06:14:09.660Z,13.40
2018-09-09T06:16:38.169Z,13.40
2018-09-09T06:19:08.661Z,13.50
2018-09-09T06:21:37.093Z,13.40
2018-09-09T06:24:06.013Z,13.50
2018-09-09T06:26:34.359Z,13.60
2018-09-09T06:29:02.962Z,13.70
2018-09-09T06:31:31.932Z,13.90
2018-09-09T06:34:01.046Z,14.00
2018-09-09T06:36:29.310Z,14.20
2018-09-09T06:38:58.406Z,14.30
2018-09-09T06:41:26.716Z,14.40
2018-09-09T06:43:55.776Z,14.60
2018-09-09T06:46:24.131Z,14.70
2018-09-09T06:48:52.684Z,14.80
2018-09-09T06:51:22.351Z,14.90
2018-09-09T06:53:51.465Z,14.90
2018-09-09T06:56:20.260Z,15.00
2018-09-09T06:58:48.480Z,15.00
2018-09-09T07:01:17.188Z,15.00
2018-09-09T07:03:45.992Z,15.10
2018-09-09T07:06:14.259Z,15.00
2018-09-09T07:08:42.486Z,15.10
2018-09-09T07:11:11.109Z,15.10
2018-09-09T07:13:40.061Z,15.20
2018-09-09T07:16:08.436Z,15.20
2018-09-09T07:18:36.860Z,15.30
2018-09-09T07:21:06.310Z,15.40
2018-09-09T07:23:34.993Z,15.60
2018-09-09T07:26:05.191Z,15.70
2018-09-09T07:28:33.554Z,15.80
2018-09-09T07:31:02.072Z,15.80
2018-09-09T07:33:31.433Z,16.00
2018-09-09T07:36:01.218Z,16.00
2018-09-09T07:38:30.346Z,16.10
2018-09-09T07:40:59.175Z,16.20
2018-09-09T07:43:28.590Z,16.40
2018-09-09T07:45:58.068Z,16.50
2018-09-09T07:48:27.652Z,16.70
2018-09-09T07:50:56.310Z,16.90
2018-09-09T07:53:26.606Z,17.00
2018-09-09T07:55:55.146Z,17.00
2018-09-09T07:58:23.500Z,17.20
2018-09-09T08:00:52.485Z,17.30
2018-09-09T08:03:21.488Z,17.50
2018-09-09T08:05:49.814Z,17.70
2018-09-09T08:08:18.492Z,17.70
2018-09-09T08:10:47.087Z,17.80
2018-09-09T08:13:16.185Z,17.90
2018-09-09T08:15:44.877Z,17.90
2018-09-09T08:18:13.332Z,18.10
2018-09-09T08:20:41.597Z,18.10
2018-09-09T08:23:11.282Z,18.20
2018-09-09T08:25:39.561Z,18.20
2018-09-09T08:28:09.069Z,18.20
2018-09-09T08:30:37.692Z,18.30
2018-09-09T08:33:06.416Z,18.40
2018-09-09T08:35:35.641Z,18.50
2018-09-09T08:38:04.244Z,18.60
2018-09-09T08:40:32.540Z,18.80
2018-09-09T08:43:01.696Z,18.90
2018-09-09T08:45:30.693Z,19.10
2018-09-09T08:47:59.230Z,19.20
2018-09-09T08:50:27.720Z,19.30
2018-09-09T08:52:56.573Z,19.30
2018-09-09T08:55:24.993Z,19.90
2018-09-09T08:57:53.873Z,19.60
2018-09-09T09:00:22.744Z,19.90
2018-09-09T09:02:51.930Z,19.90
2018-09-09T09:05:21.108Z,20.10
2018-09-09T09:07:49.781Z,20.20
2018-09-09T09:10:18.692Z,20.30
2018-09-09T09:12:47.666Z,20.50
2018-09-09T09:15:16.056Z,20.70
2018-09-09T09:17:44.998Z,20.80
2018-09-09T09:20:13.380Z,21.20
2018-09-09T09:22:42.575Z,21.20
2018-09-09T09:25:11.072Z,21.40
2018-09-09T09:27:39.573Z,21.60
2018-09-09T09:30:09.234Z,21.80
2018-09-09T09:32:39.468Z,21.90
2018-09-09T09:35:08.703Z,22.10
2018-09-09T09:37:37.383Z,22.30
2018-09-09T09:40:07.431Z,22.50
2018-09-09T09:42:36.447Z,22.70
2018-09-09T09:45:05.235Z,22.80
2018-09-09T09:47:33.718Z,22.80
2018-09-09T09:50:02.071Z,23.10
2018-09-09T09:52:31.210Z,23.40
2018-09-09T09:55:00.479Z,23.60
2018-09-09T09:57:29.188Z,23.80
2018-09-09T09:59:58.429Z,24.10
2018-09-09T10:02:28.067Z,24.10
2018-09-09T10:04:57.385Z,24.40
2018-09-09T10:07:26.553Z,24.40
2018-09-09T10:09:54.872Z,24.60
2018-09-09T10:12:26.351Z,24.40
2018-09-09T10:14:59.343Z,24.40
2018-09-09T10:17:30.912Z,24.40
2018-09-09T10:20:01.367Z,24.70
2018-09-09T10:22:32.049Z,25.00
2018-09-09T10:25:01.746Z,25.30
2018-09-09T10:27:32.326Z,25.40
2018-09-09T10:30:02.513Z,25.40
2018-09-09T10:32:33.011Z,25.60
2018-09-09T10:35:01.456Z,25.50
2018-09-09T10:37:29.934Z,25.50
2018-09-09T10:39:59.780Z,25.50
2018-09-09T10:42:29.127Z,25.50
2018-09-09T10:44:57.640Z,25.40
2018-09-09T10:47:26.162Z,25.60
2018-09-09T10:49:55.682Z,25.70
2018-09-09T10:52:24.050Z,25.90
2018-09-09T10:54:52.794Z,26.10
2018-09-09T10:57:21.925Z,26.30
2018-09-09T10:59:53.931Z,26.30
2018-09-09T11:02:23.090Z,26.50
2018-09-09T11:04:52.519Z,26.50
2018-09-09T11:07:22.225Z,26.40
2018-09-09T11:09:50.537Z,26.20
2018-09-09T11:12:23.403Z,25.90
2018-09-09T11:14:52.072Z,25.90
2018-09-09T11:17:21.145Z,26.20
2018-09-09T11:19:49.834Z,26.10
2018-09-09T11:22:18.561Z,25.70
2018-09-09T11:24:46.797Z,25.50
2018-09-09T11:27:15.164Z,25.50
2018-09-09T11:29:43.784Z,25.70
2018-09-09T11:32:13.206Z,25.80
2018-09-09T11:34:43.600Z,26.00
2018-09-09T11:37:13.023Z,26.20
2018-09-09T11:39:42.613Z,26.30
2018-09-09T11:42:11.227Z,26.30
2018-09-09T11:44:40.021Z,26.30
2018-09-09T11:47:09.003Z,26.50
2018-09-09T11:49:38.896Z,26.40
2018-09-09T11:52:08.092Z,26.40
2018-09-09T11:54:37.628Z,26.60
2018-09-09T11:57:06.464Z,26.80
2018-09-09T11:59:35.146Z,26.80
2018-09-09T12:02:05.009Z,26.90
2018-09-09T12:04:33.365Z,26.90
2018-09-09T12:07:01.841Z,26.80
2018-09-09T12:09:30.346Z,25.90
2018-09-09T12:12:00.820Z,26.20
2018-09-09T12:14:29.220Z,25.80
2018-09-09T12:16:58.565Z,26.00
2018-09-09T12:19:27.841Z,26.20
2018-09-09T12:21:56.301Z,26.50
2018-09-09T12:24:25.219Z,27.10
2018-09-09T12:26:55.916Z,27.10
2018-09-09T12:29:24.149Z,27.10
2018-09-09T12:31:52.377Z,27.40
2018-09-09T12:34:20.699Z,27.30
2018-09-09T12:36:49.145Z,27.20
2018-09-09T12:39:18.036Z,27.30
2018-09-09T12:41:46.605Z,27.50
2018-09-09T12:44:20.623Z,27.70
2018-09-09T12:46:55.766Z,27.80
2018-09-09T12:49:24.155Z,27.80
2018-09-09T12:51:52.907Z,27.50
2018-09-09T12:54:22.124Z,27.50
2018-09-09T12:56:50.779Z,27.30
2018-09-09T12:59:19.381Z,27.30
2018-09-09T13:01:47.625Z,27.30
2018-09-09T13:04:16.784Z,27.60
2018-09-09T13:06:45.133Z,27.90
2018-09-09T13:09:13.615Z,28.00
2018-09-09T13:11:43.387Z,28.00
2018-09-09T13:14:13.753Z,28.00
2018-09-09T13:16:44.709Z,28.10
2018-09-09T13:19:13.041Z,27.90
2018-09-09T13:21:45.647Z,27.70
2018-09-09T13:24:14.997Z,27.40
2018-09-09T13:26:43.700Z,27.80
2018-09-09T13:29:14.238Z,28.60
2018-09-09T13:31:44.091Z,29.30
2018-09-09T13:34:12.899Z,29.70
2018-09-09T13:36:41.769Z,30.40
2018-09-09T13:39:10.491Z,30.90
2018-09-09T13:41:39.087Z,32.10
2018-09-09T13:44:08.809Z,32.20
2018-09-09T13:46:37.324Z,32.70
2018-09-09T13:49:08.809Z,33.50
2018-09-09T13:51:38.686Z,34.00
2018-09-09T13:54:07.276Z,34.80
2018-09-09T13:56:36.207Z,34.30
2018-09-09T13:59:05.687Z,34.60
2018-09-09T14:01:34.239Z,34.70
2018-09-09T14:04:04.916Z,34.30
2018-09-09T14:06:33.427Z,34.20
2018-09-09T14:09:04.176Z,34.70
2018-09-09T14:11:32.706Z,34.70
2018-09-09T14:14:01.972Z,35.20
2018-09-09T14:16:30.305Z,34.70
2018-09-09T14:18:59.404Z,35.40
2018-09-09T14:21:28.014Z,35.30
2018-09-09T14:23:56.935Z,35.00
2018-09-09T14:26:26.900Z,35.20
2018-09-09T14:28:56.080Z,35.30
2018-09-09T14:31:24.694Z,37.00
2018-09-09T14:33:54.182Z,37.00
2018-09-09T14:36:22.715Z,37.20
2018-09-09T14:38:52.079Z,36.10
2018-09-09T14:41:22.112Z,35.90
2018-09-09T14:43:51.961Z,36.40
2018-09-09T14:46:23.389Z,36.40
2018-09-09T14:48:53.440Z,36.40
2018-09-09T14:51:22.355Z,37.00
2018-09-09T14:53:53.151Z,36.60
2018-09-09T14:56:21.889Z,36.50
2018-09-09T14:58:50.615Z,36.60
2018-09-09T15:01:19.065Z,36.90
2018-09-09T15:03:47.990Z,36.30
2018-09-09T15:06:17.542Z,36.60
2018-09-09T15:08:46.931Z,36.10
2018-09-09T15:11:16.317Z,36.60
2018-09-09T15:13:44.958Z,36.60
2018-09-09T15:16:13.909Z,36.70
2018-09-09T15:18:44.057Z,35.20
2018-09-09T15:21:12.455Z,35.10
2018-09-09T15:23:41.003Z,34.50
2018-09-09T15:26:09.983Z,33.60
2018-09-09T15:28:38.618Z,33.60
2018-09-09T15:31:07.174Z,33.80
2018-09-09T15:33:36.394Z,33.70
2018-09-09T15:36:04.844Z,33.40
2018-09-09T15:38:33.731Z,34.60
2018-09-09T15:41:02.684Z,35.20
2018-09-09T15:43:31.708Z,35.80
2018-09-09T15:46:00.032Z,35.00
2018-09-09T15:48:29.025Z,34.60
2018-09-09T15:50:57.316Z,35.50
2018-09-09T15:53:25.957Z,35.50
2018-09-09T15:55:54.224Z,35.90
2018-09-09T15:58:22.585Z,35.60
2018-09-09T16:00:51.177Z,34.20
2018-09-09T16:03:19.746Z,34.30
2018-09-09T16:05:48.334Z,33.90
2018-09-09T16:08:17.926Z,33.40
2018-09-09T16:10:47.806Z,33.10
2018-09-09T16:13:16.500Z,34.00
2018-09-09T16:15:44.743Z,33.80
2018-09-09T16:18:13.201Z,34.20
2018-09-09T16:20:42.098Z,34.20
2018-09-09T16:23:11.176Z,33.80
2018-09-09T16:25:39.514Z,34.30
2018-09-09T16:28:08.945Z,35.00
2018-09-09T16:30:39.184Z,34.30
2018-09-09T16:33:07.841Z,32.70
2018-09-09T16:35:36.498Z,31.60
2018-09-09T16:38:05.444Z,31.30
2018-09-09T16:40:34.602Z,31.20
2018-09-09T16:43:02.977Z,31.50
2018-09-09T16:45:31.838Z,32.20
2018-09-09T16:48:01.734Z,31.70
2018-09-09T16:50:30.990Z,31.90
2018-09-09T16:55:27.679Z,31.20
2018-09-09T16:57:56.136Z,31.30
2018-09-09T17:00:24.660Z,30.90
2018-09-09T17:02:53.711Z,28.80
2018-09-09T17:05:22.489Z,28.00
2018-09-09T17:07:51.090Z,28.00
2018-09-09T17:10:19.794Z,27.60
2018-09-09T17:12:48.152Z,27.40
2018-09-09T17:15:16.806Z,27.10
2018-09-09T17:17:45.889Z,26.50
2018-09-09T17:20:15.000Z,26.20
2018-09-09T17:22:44.764Z,26.20
2018-09-09T17:25:13.316Z,26.00
2018-09-09T17:27:42.243Z,25.50
2018-09-09T17:30:10.552Z,25.50
2018-09-09T17:32:39.171Z,25.20
2018-09-09T17:35:07.466Z,25.10
2018-09-09T17:37:35.904Z,25.10
2018-09-09T17:40:04.525Z,25.00
2018-09-09T17:42:33.818Z,24.60
2018-09-09T17:45:02.063Z,24.60
2018-09-09T17:47:30.574Z,24.40
2018-09-09T17:50:00.720Z,24.10
2018-09-09T17:52:30.611Z,24.00
2018-09-09T17:54:59.721Z,23.50
2018-09-09T17:57:29.361Z,23.50
2018-09-09T17:59:58.932Z,23.40
2018-09-09T18:02:28.202Z,23.30
2018-09-09T18:04:57.147Z,23.10
2018-09-09T18:07:25.642Z,23.10
2018-09-09T18:09:54.309Z,22.90
2018-09-09T18:12:23.658Z,22.70
2018-09-09T18:14:51.960Z,22.70
2018-09-09T18:17:21.587Z,22.40
2018-09-09T18:19:49.839Z,22.30
2018-09-09T18:22:19.703Z,22.10
2018-09-09T18:24:49.052Z,21.90
2018-09-09T18:27:18.093Z,21.90
2018-09-09T18:29:47.562Z,21.70
2018-09-09T18:32:16.980Z,21.50
2018-09-09T18:34:46.060Z,21.50
2018-09-09T18:37:16.789Z,21.40
2018-09-09T18:39:45.244Z,21.40
2018-09-09T18:42:14.497Z,21.30
2018-09-09T18:44:45.006Z,21.20
2018-09-09T18:47:15.106Z,21.10
2018-09-09T18:49:43.986Z,21.00
2018-09-09T18:52:13.132Z,21.00
2018-09-09T18:57:12.305Z,20.90
2018-09-09T18:59:41.012Z,21.00
2018-09-09T19:02:09.507Z,20.70
2018-09-09T19:04:38.819Z,20.60
2018-09-09T19:09:36.049Z,20.50
2018-09-09T19:12:06.678Z,20.50
2018-09-09T19:14:35.296Z,20.50
2018-09-09T19:17:04.901Z,20.30
2018-09-09T19:19:33.213Z,20.30
2018-09-09T19:22:01.621Z,20.10
2018-09-09T19:24:30.157Z,20.20
2018-09-09T19:26:59.100Z,20.10
2018-09-09T19:29:27.386Z,20.10
2018-09-09T19:31:56.236Z,20.00
2018-09-09T19:34:26.797Z,19.90
2018-09-09T19:36:55.966Z,19.90
2018-09-09T19:39:24.212Z,19.90
2018-09-09T19:41:54.949Z,19.70
2018-09-09T19:44:24.008Z,19.70
2018-09-09T19:46:52.416Z,19.60
2018-09-09T19:49:21.833Z,19.50
2018-09-09T19:51:50.939Z,19.50
2018-09-09T19:54:19.482Z,19.40
2018-09-09T19:56:48.769Z,19.40
2018-09-09T19:59:17.629Z,19.60
2018-09-09T20:01:45.960Z,19.10
2018-09-09T20:04:14.262Z,19.20
2018-09-09T20:06:43.935Z,19.20
2018-09-09T20:09:14.712Z,19.30
2018-09-09T20:11:44.017Z,18.90
2018-09-09T20:14:15.452Z,18.90
2018-09-09T20:16:44.501Z,18.90
2018-09-09T20:19:13.852Z,18.80
2018-09-09T20:21:43.624Z,18.80
2018-09-09T20:24:13.587Z,18.80
2018-09-09T20:26:42.227Z,19.00
2018-09-09T20:29:11.083Z,18.70
2018-09-09T20:34:08.243Z,18.50
2018-09-09T20:36:37.699Z,18.50
2018-09-09T20:39:09.923Z,18.50
2018-09-09T20:41:38.536Z,18.40
2018-09-09T20:44:07.293Z,18.40
2018-09-09T20:46:36.260Z,18.30
2018-09-09T20:49:05.774Z,18.30
2018-09-09T20:51:34.928Z,18.30
2018-09-09T20:54:03.444Z,18.30
2018-09-09T20:56:31.728Z,18.30
2018-09-09T20:59:00.304Z,18.30
2018-09-09T21:01:29.599Z,18.20
2018-09-09T21:03:59.041Z,18.20
2018-09-09T21:06:27.883Z,18.10
2018-09-09T21:08:57.837Z,18.00
2018-09-09T21:11:29.987Z,17.80
2018-09-09T21:13:59.470Z,17.80
2018-09-09T21:16:27.800Z,17.70
2018-09-09T21:18:56.848Z,17.70
2018-09-09T21:21:26.769Z,17.70
2018-09-09T21:23:55.812Z,17.60
2018-09-09T21:26:24.974Z,17.50
2018-09-09T21:28:58.310Z,17.50
2018-09-09T21:31:27.258Z,17.50
2018-09-09T21:33:55.556Z,17.50
2018-09-09T21:36:24.518Z,17.50
2018-09-09T21:38:53.524Z,17.50
2018-09-09T21:41:22.368Z,17.50
2018-09-09T21:43:51.024Z,17.50
2018-09-09T21:46:21.575Z,17.50
2018-09-09T21:48:51.507Z,17.50
2018-09-09T21:51:20.816Z,17.40
2018-09-09T21:53:49.951Z,17.40
2018-09-09T21:56:20.401Z,17.30
2018-09-09T21:58:48.864Z,17.20
2018-09-09T22:01:23.660Z,17.10
2018-09-09T22:03:58.099Z,17.10
2018-09-09T22:06:27.860Z,17.10
2018-09-09T22:08:57.861Z,17.10
2018-09-09T22:11:28.225Z,16.90
2018-09-09T22:13:56.482Z,16.90
2018-09-09T22:16:25.455Z,16.90
2018-09-09T22:18:54.227Z,16.80
2018-09-09T22:21:23.316Z,16.80
2018-09-09T22:23:51.655Z,16.60
2018-09-09T22:26:22.240Z,16.80
2018-09-09T22:28:51.184Z,16.70
2018-09-09T22:31:19.905Z,16.60
2018-09-09T22:33:48.315Z,16.60
2018-09-09T22:36:16.601Z,16.50
2018-09-09T22:38:45.183Z,16.50
2018-09-09T22:43:42.894Z,16.40
2018-09-09T22:48:40.583Z,16.30
2018-09-09T22:51:09.184Z,16.20
2018-09-09T22:53:38.006Z,16.30
2018-09-09T22:56:06.594Z,16.10
2018-09-09T22:58:34.952Z,16.10
2018-09-09T23:01:04.238Z,16.10
2018-09-09T23:03:32.999Z,16.10
2018-09-09T23:06:02.483Z,15.90
2018-09-09T23:08:31.714Z,15.90
2018-09-09T23:11:00.280Z,15.90
2018-09-09T23:13:30.273Z,15.90
2018-09-09T23:15:58.757Z,15.90
2018-09-09T23:18:28.680Z,15.90
2018-09-09T23:20:58.467Z,15.80
2018-09-09T23:23:27.373Z,15.80
2018-09-09T23:25:55.735Z,15.80
2018-09-09T23:28:25.237Z,15.80
2018-09-09T23:30:54.683Z,15.80
2018-09-09T23:33:24.304Z,15.80
2018-09-09T23:35:54.965Z,15.80
2018-09-09T23:38:23.405Z,15.80
2018-09-09T23:40:52.552Z,15.70
2018-09-09T23:43:23.160Z,15.70
2018-09-09T23:45:52.570Z,15.60
2018-09-09T23:48:21.735Z,15.70
2018-09-09T23:50:50.384Z,15.40
2018-09-09T23:53:19.658Z,15.60
2018-09-09T23:55:48.523Z,15.50
2018-09-09T23:58:17.616Z,15.50
